Jackson Hole Airport
KJAC : now visible

Airfield :











YOU CAN JOIN US ON...

 
LOGIN :

Register | Disclaimer

   EN    FR    IT 

 









Legend :    VFR   Marginal VFR   IFR   Intensive IFR   Very Intensive IFR
Visi :
Ceiling :
>= 8 km
>= 3000ft
5 to 8 km
1000 to 3000 ft
1500m to 5 km
500 to 1000 ft
800 to 1500m
200 to 500 ft
< 800m
< 200 ft
Symbols :   Thunderstorms  Fog  Heavy snow  Heavy precipitations  Wind > 20 kt






- Airport Elevation : 6451 ft
- IATA code : JAC


KJAC - Jackson Hole

CURRENT METAR :
  • 291756Z 02017KT 4SM -SN OVC033 M16/M21 A2986 RMK AO2 SLP223 P0000 60000 T11611206 11161 21183 53007

EXPIRED METARs :
  • 291656Z 02021KT 4SM -SN SCT026 OVC034 M17/M21 A2984 RMK AO2 SLP214 P0000 T11721206
  • 291641Z 02022KT 4SM -SN BKN026 OVC032 M17/M21 A2984 RMK AO2 P0000
  • 291556Z 02016KT 4SM -SN OVC035 M18/M21 A2984 RMK AO2 SLP211 P0000 T11781206

TAF KJAC
Valid from the 29 at 18:00 until the 30 at 18:00 UTC


291721Z 2918/3018 02015KT P6SM VCSH BKN025 OVC035
TEMPO 2918/2920 4SM -SN
FM292000 01010KT P6SM SCT025 BKN060
FM300100 02006KT P6SM SKC
FM301300 VRB04KT P6SM VCFG SCT001
KZLC FIR / North America



MET'MAP, your aeronautical weather chart ! - Copyright ORBIFLY December 2007 - Disclaimer

ORBIFLY MET'MAP TEAM :

Programming & Development : Alexandra Zaïnal
Original concept : Baudouin d'Aumeries
Technical & hardware support : Manuel Goepfert
Assistance : Marc-Olivier Méhu




SOURCES & CREDITS :

   NOAA       Earth
Advisory